Rochester International Airport
KRST : now visible

Airfield :











YOU CAN JOIN US ON...

 
LOGIN :

Register | Disclaimer

   EN    FR    IT 

 









Legend :    VFR   Marginal VFR   IFR   Intensive IFR   Very Intensive IFR
Visi :
Ceiling :
>= 8 km
>= 3000ft
5 to 8 km
1000 to 3000 ft
1500m to 5 km
500 to 1000 ft
800 to 1500m
200 to 500 ft
< 800m
< 200 ft
Symbols :   Thunderstorms  Fog  Heavy snow  Heavy precipitations  Wind > 20 kt






- Airport Elevation : 1317 ft
- IATA code : RST


KRST - Rochester International

CURRENT METAR :
  • 281626Z 09013G23KT 4SM BR OVC005 06/04 A2966 RMK AO2 T00560044

EXPIRED METARs :
  • 281554Z 09012G21KT 2SM BR OVC006 06/04 A2969 RMK AO2 PK WND 08028/1530 SLP062 T00560044
  • 281454Z 08015G23KT 6SM BR OVC005 06/04 A2968 RMK AO2 PK WND 08028/1422 SLP059 T00560039 58003
  • 281354Z 07021G28KT 6SM BR OVC006 06/04 A2967 RMK AO2 PK WND 07028/1343 SLP052 T00560039

TAF KRST
Valid from the 28 at 12:00 until the 29 at 12:00 UTC


281120Z 2812/2912 08012G22KT 6SM -RA BR BKN008
FM281800 08016G25KT 5SM -RA VCTS OVC007CB
FM282100 07017G28KT 6SM -RA OVC007
FM282300 09016G23KT 5SM -RA VCTS OVC007CB
FM290200 07008KT 2SM -RA BR OVC005
FM290900 35009G18KT 2SM -RA BR OVC005



MET'MAP, your aeronautical weather chart ! - Copyright ORBIFLY December 2007 - Disclaimer

ORBIFLY MET'MAP TEAM :

Programming & Development : Alexandra Zaïnal
Concept & original design : Baudouin d'Aumeries
Assistance for programming : Marc-Olivier Méhu
Technical & hardware support : Manuel Goepfert

Contact : metmap@orbifly.com




SOURCES & CREDITS :

   NOAA       Earth
Advisory